createdAt,value
2022-10-17T00:02:06.188Z,17.48
2022-10-17T00:07:04.306Z,17.46
2022-10-17T00:09:30.861Z,17.49
2022-10-17T00:11:57.378Z,17.41
2022-10-17T00:14:23.952Z,17.48
2022-10-17T00:16:50.535Z,17.31
2022-10-17T00:19:17.065Z,17.58
2022-10-17T00:21:43.640Z,17.43
2022-10-17T00:24:10.205Z,17.33
2022-10-17T00:26:36.850Z,17.21
2022-10-17T00:29:03.600Z,17.15
2022-10-17T00:31:30.943Z,17.07
2022-10-17T00:33:57.626Z,16.86
2022-10-17T00:36:25.903Z,17.40
2022-10-17T00:38:58.667Z,17.32
2022-10-17T00:41:28.917Z,16.90
2022-10-17T00:44:08.184Z,17.32
2022-10-17T00:46:37.342Z,17.09
2022-10-17T00:49:07.982Z,17.19
2022-10-17T00:51:41.003Z,17.12
2022-10-17T00:54:09.047Z,16.47
2022-10-17T00:56:35.823Z,16.38
2022-10-17T00:59:03.194Z,16.88
2022-10-17T01:01:30.053Z,16.40
2022-10-17T01:03:58.131Z,16.70
2022-10-17T01:06:24.686Z,16.78
2022-10-17T01:08:51.252Z,16.78
2022-10-17T01:11:30.710Z,16.90
2022-10-17T01:14:09.029Z,16.92
2022-10-17T01:16:38.223Z,16.47
2022-10-17T01:19:07.670Z,16.88
2022-10-17T01:21:51.834Z,17.06
2022-10-17T01:24:57.992Z,16.97
2022-10-17T01:27:36.412Z,16.51
2022-10-17T01:30:21.905Z,16.20
2022-10-17T01:33:06.639Z,16.49
2022-10-17T01:35:43.167Z,16.55
2022-10-17T01:38:20.091Z,16.56
2022-10-17T01:40:56.546Z,16.35
2022-10-17T01:43:39.187Z,16.23
2022-10-17T01:46:31.715Z,16.56
2022-10-17T01:49:01.684Z,16.52
2022-10-17T01:51:33.338Z,16.32
2022-10-17T01:54:06.762Z,16.19
2022-10-17T01:56:35.988Z,16.25
2022-10-17T01:59:10.059Z,15.99
2022-10-17T02:01:39.024Z,16.22
2022-10-17T02:04:09.811Z,16.05
2022-10-17T02:06:37.042Z,15.95
2022-10-17T02:09:35.975Z,16.16
2022-10-17T02:12:25.913Z,16.24
2022-10-17T02:15:11.632Z,16.41
2022-10-17T02:18:03.202Z,16.51
2022-10-17T02:20:37.770Z,16.61
2022-10-17T02:23:33.667Z,16.60
2022-10-17T02:26:10.115Z,16.53
2022-10-17T02:28:47.367Z,16.41
2022-10-17T02:31:17.019Z,16.37
2022-10-17T02:34:07.972Z,16.36
2022-10-17T02:36:39.599Z,16.39
2022-10-17T02:39:09.447Z,16.35
2022-10-17T02:41:38.709Z,16.38
2022-10-17T02:44:07.278Z,16.35
2022-10-17T02:46:35.546Z,16.09
2022-10-17T02:49:28.093Z,16.14
2022-10-17T02:52:12.739Z,16.15
2022-10-17T02:54:52.947Z,16.02
2022-10-17T02:57:38.046Z,15.94
2022-10-17T03:00:11.995Z,15.85
2022-10-17T03:02:40.331Z,15.68
2022-10-17T03:05:10.087Z,15.52
2022-10-17T03:07:37.604Z,15.66
2022-10-17T03:10:05.186Z,15.63
2022-10-17T03:12:32.522Z,15.67
2022-10-17T03:14:59.625Z,15.53
2022-10-17T03:17:26.813Z,15.48
2022-10-17T03:19:53.423Z,15.45
2022-10-17T03:22:21.433Z,15.30
2022-10-17T03:24:48.016Z,15.53
2022-10-17T03:27:16.178Z,15.88
2022-10-17T03:29:45.094Z,15.89
2022-10-17T03:32:13.148Z,15.64
2022-10-17T03:34:39.779Z,15.66
2022-10-17T03:37:06.454Z,15.69
2022-10-17T03:39:35.175Z,15.49
2022-10-17T03:42:02.074Z,15.35
2022-10-17T03:44:29.210Z,15.64
2022-10-17T03:46:57.851Z,15.75
2022-10-17T03:49:24.487Z,15.80
2022-10-17T03:51:51.223Z,15.46
2022-10-17T03:54:19.133Z,15.57
2022-10-17T03:56:46.150Z,15.63
2022-10-17T03:59:18.389Z,15.55
2022-10-17T04:01:53.233Z,15.46
2022-10-17T04:04:21.604Z,15.58
2022-10-17T04:06:48.284Z,15.60
2022-10-17T04:09:15.162Z,15.27
2022-10-17T04:12:04.582Z,15.14
2022-10-17T04:14:32.999Z,15.38
2022-10-17T04:17:00.314Z,15.37
2022-10-17T04:19:28.118Z,15.30
2022-10-17T04:21:55.140Z,15.21
2022-10-17T04:24:22.028Z,15.01
2022-10-17T04:26:52.230Z,14.88
2022-10-17T04:29:21.739Z,14.83
2022-10-17T04:31:52.275Z,14.85
2022-10-17T04:34:42.184Z,14.86
2022-10-17T04:37:08.836Z,14.96
2022-10-17T04:39:36.493Z,15.21
2022-10-17T04:42:03.165Z,15.13
2022-10-17T04:44:31.012Z,15.14
2022-10-17T04:46:58.971Z,15.18
2022-10-17T04:49:27.954Z,15.28
2022-10-17T04:52:00.021Z,15.19
2022-10-17T04:54:32.383Z,15.05
2022-10-17T04:57:07.730Z,15.32
2022-10-17T04:59:35.271Z,15.33
2022-10-17T05:02:17.230Z,15.26
2022-10-17T05:04:46.708Z,15.01
2022-10-17T05:07:15.736Z,15.30
2022-10-17T05:09:58.761Z,15.28
2022-10-17T05:12:25.910Z,14.97
2022-10-17T05:14:53.861Z,15.18
2022-10-17T05:17:22.358Z,15.10
2022-10-17T05:19:50.003Z,15.02
2022-10-17T05:22:17.096Z,15.07
2022-10-17T05:24:44.096Z,15.05
2022-10-17T05:27:11.969Z,14.87
2022-10-17T05:29:39.687Z,15.09
2022-10-17T05:32:18.752Z,15.13
2022-10-17T05:34:46.499Z,14.78
2022-10-17T05:37:13.976Z,14.96
2022-10-17T05:39:50.638Z,14.81
2022-10-17T05:42:18.660Z,14.54
2022-10-17T05:44:47.847Z,14.55
2022-10-17T05:47:17.159Z,14.66
2022-10-17T05:49:48.662Z,14.91
2022-10-17T05:52:20.018Z,14.98
2022-10-17T05:55:08.150Z,15.06
2022-10-17T05:57:34.794Z,15.17
2022-10-17T06:00:04.849Z,15.03
2022-10-17T06:02:40.820Z,14.89
2022-10-17T06:05:08.531Z,14.96
2022-10-17T06:07:35.848Z,15.13
2022-10-17T06:10:03.976Z,15.03
2022-10-17T06:12:30.772Z,14.87
2022-10-17T06:14:58.941Z,14.83
2022-10-17T06:17:26.267Z,14.81
2022-10-17T06:19:52.818Z,14.83
2022-10-17T06:22:19.493Z,14.95
2022-10-17T06:24:46.511Z,15.01
2022-10-17T06:27:14.274Z,14.89
2022-10-17T06:29:41.432Z,14.91
2022-10-17T06:32:11.165Z,14.96
2022-10-17T06:34:41.273Z,14.75
2022-10-17T06:37:08.669Z,14.91
2022-10-17T06:39:36.775Z,14.92
2022-10-17T06:42:11.571Z,14.96
2022-10-17T06:44:56.806Z,14.80
2022-10-17T06:47:38.423Z,14.98
2022-10-17T06:50:22.169Z,14.98
2022-10-17T06:52:59.129Z,14.52
2022-10-17T06:55:53.883Z,14.75
2022-10-17T06:58:30.318Z,15.05
2022-10-17T07:01:10.081Z,15.13
2022-10-17T07:03:37.293Z,15.14
2022-10-17T07:06:04.854Z,14.89
2022-10-17T07:08:31.714Z,14.72
2022-10-17T07:11:16.174Z,14.59
2022-10-17T07:13:43.210Z,14.71
2022-10-17T07:16:10.829Z,14.61
2022-10-17T07:18:40.026Z,14.48
2022-10-17T07:21:08.533Z,14.58
2022-10-17T07:23:37.004Z,14.43
2022-10-17T07:26:09.261Z,14.44
2022-10-17T07:28:40.141Z,14.86
2022-10-17T07:31:21.317Z,14.91
2022-10-17T07:33:48.925Z,15.22
2022-10-17T07:36:15.722Z,14.97
2022-10-17T07:38:42.610Z,14.96
2022-10-17T07:41:11.493Z,14.92
2022-10-17T07:43:38.764Z,14.93
2022-10-17T07:46:08.295Z,14.90
2022-10-17T07:48:35.238Z,15.17
2022-10-17T07:51:03.564Z,15.15
2022-10-17T07:53:30.407Z,15.17
2022-10-17T07:55:57.001Z,15.23
2022-10-17T07:58:23.561Z,15.21
2022-10-17T08:00:51.219Z,15.32
2022-10-17T08:03:17.993Z,15.41
2022-10-17T08:05:44.551Z,15.21
2022-10-17T08:08:11.082Z,15.31
2022-10-17T08:10:37.667Z,15.40
2022-10-17T08:13:04.309Z,15.41
2022-10-17T08:15:32.124Z,15.46
2022-10-17T08:17:59.457Z,15.58
2022-10-17T08:20:26.529Z,15.75
2022-10-17T08:22:56.641Z,15.87
2022-10-17T08:25:23.366Z,15.78
2022-10-17T08:27:50.044Z,15.98
2022-10-17T08:30:16.893Z,15.98
2022-10-17T08:32:43.699Z,16.07
2022-10-17T08:35:10.550Z,16.25
2022-10-17T08:37:37.102Z,16.24
2022-10-17T08:40:04.398Z,16.42
2022-10-17T08:43:09.464Z,16.55
2022-10-17T08:45:52.102Z,16.56
2022-10-17T08:48:24.033Z,16.53
2022-10-17T08:51:14.441Z,16.70
2022-10-17T08:53:51.323Z,16.86
2022-10-17T08:56:43.974Z,16.94
2022-10-17T08:59:19.952Z,17.33
2022-10-17T09:02:01.218Z,17.32
2022-10-17T09:04:42.170Z,17.37
2022-10-17T09:07:25.047Z,17.50
2022-10-17T09:10:15.820Z,17.62
2022-10-17T09:13:09.975Z,17.75
2022-10-17T09:16:01.160Z,18.10
2022-10-17T09:18:32.651Z,18.31
2022-10-17T09:21:18.087Z,18.25
2022-10-17T09:23:59.491Z,18.70
2022-10-17T09:26:36.562Z,18.74
2022-10-17T09:29:11.651Z,18.84
2022-10-17T09:32:04.052Z,18.86
2022-10-17T09:34:32.814Z,18.89
2022-10-17T09:37:01.536Z,19.03
2022-10-17T09:39:32.980Z,18.87
2022-10-17T09:42:01.520Z,19.03
2022-10-17T09:44:38.674Z,19.24
2022-10-17T09:47:23.684Z,19.41
2022-10-17T09:49:50.969Z,19.53
2022-10-17T09:52:27.820Z,19.58
2022-10-17T09:55:04.886Z,19.70
2022-10-17T09:57:56.281Z,19.83
2022-10-17T10:00:26.978Z,20.08
2022-10-17T10:03:17.640Z,20.26
2022-10-17T10:06:03.327Z,20.33
2022-10-17T10:08:33.811Z,20.38
2022-10-17T10:11:04.517Z,20.42
2022-10-17T10:13:33.425Z,20.49
2022-10-17T10:16:29.805Z,20.65
2022-10-17T10:18:56.393Z,20.79
2022-10-17T10:21:27.893Z,20.79
2022-10-17T10:24:13.006Z,21.00
2022-10-17T10:26:44.665Z,21.08
2022-10-17T10:29:32.095Z,21.12
2022-10-17T10:32:09.122Z,21.16
2022-10-17T10:34:39.176Z,21.26
2022-10-17T10:37:17.186Z,21.28
2022-10-17T10:39:53.234Z,21.46
2022-10-17T10:42:39.422Z,21.56
2022-10-17T10:45:29.298Z,21.73
2022-10-17T10:48:06.366Z,21.77
2022-10-17T10:50:56.109Z,22.17
2022-10-17T10:53:34.110Z,22.07
2022-10-17T10:56:08.311Z,21.90
2022-10-17T10:58:49.766Z,21.48
2022-10-17T11:01:22.566Z,21.88
2022-10-17T11:04:01.326Z,22.00
2022-10-17T11:06:34.262Z,22.04
2022-10-17T11:09:12.267Z,22.02
2022-10-17T11:11:50.025Z,22.03
2022-10-17T11:14:34.840Z,22.24
2022-10-17T11:17:12.045Z,22.39
2022-10-17T11:19:51.717Z,22.45
2022-10-17T11:22:26.623Z,22.65
2022-10-17T11:25:04.315Z,22.71
2022-10-17T11:27:33.773Z,22.70
2022-10-17T11:30:00.493Z,22.66
2022-10-17T11:32:34.377Z,22.58
2022-10-17T11:35:17.101Z,23.01
2022-10-17T11:37:50.794Z,22.93
2022-10-17T11:40:31.837Z,23.03
2022-10-17T11:43:24.581Z,22.98
2022-10-17T11:45:58.130Z,22.45
2022-10-17T11:49:13.077Z,22.77
2022-10-17T11:52:05.670Z,22.87
2022-10-17T11:54:41.761Z,23.23
2022-10-17T11:57:50.465Z,22.65
2022-10-17T12:00:39.264Z,22.19
2022-10-17T12:03:21.176Z,22.28
2022-10-17T12:05:59.802Z,22.58
2022-10-17T12:08:38.445Z,22.46
2022-10-17T12:11:17.703Z,22.44
2022-10-17T12:13:52.602Z,22.56
2022-10-17T12:16:21.732Z,22.61
2022-10-17T12:18:52.858Z,22.73
2022-10-17T12:21:19.392Z,22.92
2022-10-17T12:23:53.860Z,22.76
2022-10-17T12:26:29.031Z,22.91
2022-10-17T12:28:56.689Z,22.95
2022-10-17T12:31:29.604Z,22.78
2022-10-17T12:34:01.970Z,23.01
2022-10-17T12:36:28.670Z,22.78
2022-10-17T12:39:01.145Z,22.48
2022-10-17T12:41:40.271Z,22.13
2022-10-17T12:44:12.720Z,22.32
2022-10-17T12:47:01.127Z,22.61
2022-10-17T12:49:43.531Z,23.09
2022-10-17T12:52:27.176Z,22.13
2022-10-17T12:55:11.554Z,22.76
2022-10-17T12:57:50.338Z,22.64
2022-10-17T13:00:37.600Z,22.44
2022-10-17T13:03:20.401Z,22.48
2022-10-17T13:05:55.743Z,22.13
2022-10-17T13:08:32.178Z,22.29
2022-10-17T13:11:00.195Z,22.32
2022-10-17T13:13:38.251Z,22.58
2022-10-17T13:16:05.232Z,22.09
2022-10-17T13:18:31.983Z,22.24
2022-10-17T13:21:05.170Z,22.26
2022-10-17T13:23:37.890Z,21.94
2022-10-17T13:26:14.471Z,22.01
2022-10-17T13:28:42.579Z,22.38
2022-10-17T13:31:28.858Z,22.42
2022-10-17T13:33:57.913Z,22.87
2022-10-17T13:36:25.566Z,22.73
2022-10-17T13:38:52.352Z,22.55
2022-10-17T13:41:36.171Z,22.67
2022-10-17T13:44:11.563Z,22.98
2022-10-17T13:46:39.988Z,23.21
2022-10-17T13:49:18.809Z,23.10
2022-10-17T13:51:47.804Z,22.63
2022-10-17T13:54:40.177Z,23.13
2022-10-17T13:57:20.575Z,23.52
2022-10-17T13:59:51.528Z,22.82
2022-10-17T14:02:24.924Z,23.17
2022-10-17T14:05:23.007Z,23.08
2022-10-17T14:08:10.912Z,23.54
2022-10-17T14:10:38.840Z,23.37
2022-10-17T14:13:10.925Z,23.48
2022-10-17T14:15:37.712Z,23.62
2022-10-17T14:18:07.906Z,23.14
2022-10-17T14:23:33.202Z,23.59
2022-10-17T14:26:12.319Z,23.59
2022-10-17T14:28:40.003Z,23.78
2022-10-17T14:31:14.111Z,23.79
2022-10-17T14:33:49.663Z,23.90
2022-10-17T14:36:17.499Z,23.76
2022-10-17T14:38:49.652Z,24.12
2022-10-17T14:41:42.042Z,23.99
2022-10-17T14:44:19.213Z,24.18
2022-10-17T14:46:50.977Z,24.36
2022-10-17T14:49:32.664Z,24.55
2022-10-17T14:52:18.544Z,24.35
2022-10-17T14:54:49.676Z,24.16
2022-10-17T14:57:28.224Z,24.49
2022-10-17T14:59:56.532Z,24.77
2022-10-17T15:02:30.635Z,24.56
2022-10-17T15:04:57.464Z,24.77
2022-10-17T15:07:24.525Z,24.86
2022-10-17T15:09:53.155Z,25.06
2022-10-17T15:12:22.589Z,25.27
2022-10-17T15:14:50.491Z,25.37
2022-10-17T15:17:37.291Z,25.48
2022-10-17T15:20:04.043Z,25.59
2022-10-17T15:22:31.584Z,25.48
2022-10-17T15:24:58.408Z,25.39
2022-10-17T15:27:26.420Z,25.54
2022-10-17T15:29:53.203Z,25.43
2022-10-17T15:32:19.860Z,25.35
2022-10-17T15:34:46.381Z,25.28
2022-10-17T15:37:22.464Z,25.23
2022-10-17T15:39:54.518Z,25.24
2022-10-17T15:42:23.234Z,25.10
2022-10-17T15:44:50.231Z,25.03
2022-10-17T15:47:31.037Z,24.92
2022-10-17T15:49:58.193Z,24.91
2022-10-17T15:52:25.266Z,24.89
2022-10-17T15:54:52.239Z,24.69
2022-10-17T15:57:24.309Z,24.50
2022-10-17T15:59:52.436Z,24.25
2022-10-17T16:02:20.871Z,24.00
2022-10-17T16:04:48.734Z,23.77
2022-10-17T16:07:15.295Z,23.80
2022-10-17T16:09:41.841Z,23.58
2022-10-17T16:12:16.363Z,23.57
2022-10-17T16:14:43.069Z,23.15
2022-10-17T16:17:13.692Z,23.07
2022-10-17T16:19:40.346Z,22.93
2022-10-17T16:22:18.974Z,22.62
2022-10-17T16:24:45.742Z,22.42
2022-10-17T16:27:12.333Z,22.23
2022-10-17T16:29:38.946Z,22.21
2022-10-17T16:32:05.566Z,22.25
2022-10-17T16:34:32.314Z,22.03
2022-10-17T16:36:58.894Z,22.10
2022-10-17T16:39:25.454Z,21.92
2022-10-17T16:41:54.798Z,21.78
2022-10-17T16:44:24.310Z,21.72
2022-10-17T16:46:50.883Z,21.80
2022-10-17T16:49:18.223Z,21.47
2022-10-17T16:51:44.840Z,21.49
2022-10-17T16:54:11.422Z,21.70
2022-10-17T16:56:38.078Z,21.64
2022-10-17T16:59:04.693Z,21.52
2022-10-17T17:01:31.350Z,21.59
2022-10-17T17:03:58.134Z,21.64
2022-10-17T17:06:27.994Z,21.72
2022-10-17T17:08:56.136Z,21.67
2022-10-17T17:11:25.310Z,21.54
2022-10-17T17:13:52.068Z,21.39
2022-10-17T17:16:24.208Z,21.46
2022-10-17T17:18:55.602Z,21.24
2022-10-17T17:21:22.716Z,21.16
2022-10-17T17:23:49.653Z,21.04
2022-10-17T17:26:19.535Z,20.71
2022-10-17T17:28:46.822Z,20.73
2022-10-17T17:31:17.557Z,20.63
2022-10-17T17:33:46.590Z,20.59
2022-10-17T17:36:17.147Z,20.66
2022-10-17T17:38:44.271Z,21.05
2022-10-17T17:41:16.069Z,21.00
2022-10-17T17:43:44.147Z,21.11
2022-10-17T17:46:10.957Z,20.83
2022-10-17T17:48:39.087Z,20.78
2022-10-17T17:51:07.208Z,20.34
2022-10-17T17:53:35.314Z,20.31
2022-10-17T17:56:06.997Z,20.90
2022-10-17T17:58:35.011Z,20.96
2022-10-17T18:01:08.176Z,20.96
2022-10-17T18:03:34.987Z,20.84
2022-10-17T18:06:01.543Z,20.72
2022-10-17T18:08:28.114Z,20.49
2022-10-17T18:10:56.371Z,20.65
2022-10-17T18:13:22.965Z,20.47
2022-10-17T18:15:51.826Z,20.54
2022-10-17T18:18:18.964Z,20.48
2022-10-17T18:20:45.723Z,20.30
2022-10-17T18:23:12.366Z,20.24
2022-10-17T18:25:39.114Z,20.19
2022-10-17T18:28:05.684Z,20.15
2022-10-17T18:30:34.530Z,20.12
2022-10-17T18:33:01.640Z,20.07
2022-10-17T18:35:28.304Z,20.09
2022-10-17T18:37:56.942Z,19.95
2022-10-17T18:40:23.508Z,19.64
2022-10-17T18:42:50.067Z,19.79
2022-10-17T18:45:17.809Z,19.88
2022-10-17T18:47:47.251Z,19.79
2022-10-17T18:50:14.717Z,19.79
2022-10-17T18:52:41.316Z,19.76
2022-10-17T18:55:08.277Z,19.64
2022-10-17T18:57:34.833Z,19.65
2022-10-17T19:00:01.429Z,19.58
2022-10-17T19:02:28.069Z,19.60
2022-10-17T19:04:54.621Z,19.50
2022-10-17T19:07:21.174Z,19.51
2022-10-17T19:09:48.763Z,19.47
2022-10-17T19:12:15.751Z,19.55
2022-10-17T19:14:42.265Z,19.34
2022-10-17T19:17:08.862Z,19.38
2022-10-17T19:19:36.030Z,19.45
2022-10-17T19:22:03.437Z,18.86
2022-10-17T19:24:30.024Z,18.86
2022-10-17T19:26:59.382Z,19.13
2022-10-17T19:29:27.974Z,19.41
2022-10-17T19:34:22.279Z,18.86
2022-10-17T19:36:48.951Z,18.48
2022-10-17T19:39:19.238Z,18.49
2022-10-17T19:41:47.518Z,18.55
2022-10-17T19:44:14.858Z,19.14
2022-10-17T19:46:44.241Z,18.42
2022-10-17T19:49:11.602Z,18.38
2022-10-17T19:51:38.740Z,18.67
2022-10-17T19:54:05.818Z,18.83
2022-10-17T19:56:37.688Z,18.98
2022-10-17T19:59:06.109Z,18.97
2022-10-17T20:01:35.133Z,18.54
2022-10-17T20:04:02.297Z,18.06
2022-10-17T20:06:28.928Z,18.08
2022-10-17T20:08:55.632Z,18.06
2022-10-17T20:11:26.181Z,18.49
2022-10-17T20:13:54.089Z,18.27
2022-10-17T20:16:26.486Z,18.29
2022-10-17T20:18:56.202Z,18.27
2022-10-17T20:21:27.351Z,18.64
2022-10-17T20:23:54.467Z,18.65
2022-10-17T20:26:36.998Z,18.39
2022-10-17T20:29:08.221Z,18.31
2022-10-17T20:31:35.114Z,18.55
2022-10-17T20:34:01.783Z,18.35
2022-10-17T20:36:28.425Z,17.99
2022-10-17T20:38:56.915Z,17.78
2022-10-17T20:41:24.437Z,17.65
2022-10-17T20:43:52.361Z,18.23
2022-10-17T20:46:34.962Z,18.22
2022-10-17T20:49:03.763Z,18.32
2022-10-17T20:51:30.756Z,18.31
2022-10-17T20:56:31.524Z,18.21
2022-10-17T20:59:03.499Z,18.11
2022-10-17T21:01:32.044Z,17.96
2022-10-17T21:04:06.132Z,18.07
2022-10-17T21:06:38.442Z,17.69
2022-10-17T21:09:06.063Z,17.27
2022-10-17T21:11:32.630Z,17.58
2022-10-17T21:14:03.412Z,17.59
2022-10-17T21:16:31.664Z,17.88
2022-10-17T21:18:58.876Z,17.99
2022-10-17T21:21:30.943Z,17.96
2022-10-17T21:24:00.785Z,17.81
2022-10-17T21:26:28.267Z,17.85
2022-10-17T21:28:55.199Z,17.67
2022-10-17T21:31:24.040Z,17.44
2022-10-17T21:33:53.237Z,17.54
2022-10-17T21:36:21.558Z,17.58
2022-10-17T21:38:50.497Z,17.47
2022-10-17T21:41:19.619Z,17.18
2022-10-17T21:43:46.509Z,17.05
2022-10-17T21:46:16.636Z,17.01
2022-10-17T21:48:43.984Z,17.09
2022-10-17T21:51:12.798Z,17.16
2022-10-17T21:53:39.567Z,16.93
2022-10-17T21:56:09.879Z,16.77
2022-10-17T21:58:36.442Z,17.04
2022-10-17T22:01:08.819Z,16.98
2022-10-17T22:03:44.084Z,17.04
2022-10-17T22:06:38.820Z,17.16
2022-10-17T22:09:04.211Z,17.08
2022-10-17T22:11:33.854Z,17.01
2022-10-17T22:14:06.809Z,17.12
2022-10-17T22:16:34.326Z,17.18
2022-10-17T22:19:05.946Z,17.13
2022-10-17T22:21:35.494Z,17.20
2022-10-17T22:24:06.095Z,16.95
2022-10-17T22:26:34.427Z,16.79
2022-10-17T22:29:01.636Z,16.93
2022-10-17T22:31:28.348Z,16.91
2022-10-17T22:33:55.974Z,16.73
2022-10-17T22:36:22.892Z,16.61
2022-10-17T22:38:50.214Z,16.63
2022-10-17T22:41:17.561Z,16.57
2022-10-17T22:43:44.623Z,16.57
2022-10-17T22:46:14.067Z,16.73
2022-10-17T22:48:40.736Z,16.84
2022-10-17T22:51:07.649Z,16.96
2022-10-17T22:53:35.144Z,16.99
2022-10-17T22:56:13.790Z,16.90
2022-10-17T22:58:41.435Z,16.76
2022-10-17T23:01:14.483Z,16.89
2022-10-17T23:03:41.256Z,16.94
2022-10-17T23:06:07.799Z,16.90
2022-10-17T23:08:35.001Z,16.90
2022-10-17T23:11:01.725Z,16.90
2022-10-17T23:13:29.310Z,16.81
2022-10-17T23:15:57.071Z,16.71
2022-10-17T23:18:25.707Z,16.79
2022-10-17T23:20:53.110Z,16.86
2022-10-17T23:23:20.234Z,16.48
2022-10-17T23:25:47.555Z,16.52
2022-10-17T23:28:14.273Z,16.59
2022-10-17T23:30:41.195Z,16.56
2022-10-17T23:33:08.085Z,16.48
2022-10-17T23:35:35.625Z,16.37
2022-10-17T23:38:02.415Z,16.51
2022-10-17T23:40:29.086Z,16.52
2022-10-17T23:42:55.703Z,16.63
2022-10-17T23:45:22.347Z,16.62
2022-10-17T23:47:48.996Z,16.56
2022-10-17T23:50:16.548Z,16.51
2022-10-17T23:52:43.489Z,16.55
2022-10-17T23:55:10.225Z,16.37
2022-10-17T23:57:37.086Z,16.20
